sensor_id;sensor_type;location;lat;lon;timestamp;P1;durP1;ratioP1;P2;durP2;ratioP2
17261;SDS011;9873;52.236;21.002;2023-07-22T00:00:44;7.60;;;4.97;;
17261;SDS011;9873;52.236;21.002;2023-07-22T00:10:49;6.70;;;5.10;;
17261;SDS011;9873;52.236;21.002;2023-07-22T00:20:54;8.02;;;5.25;;
17261;SDS011;9873;52.236;21.002;2023-07-22T00:30:57;7.53;;;6.10;;
17261;SDS011;9873;52.236;21.002;2023-07-22T00:41:01;5.38;;;4.88;;
17261;SDS011;9873;52.236;21.002;2023-07-22T00:51:06;7.55;;;6.18;;
17261;SDS011;9873;52.236;21.002;2023-07-22T01:01:08;8.13;;;6.85;;
17261;SDS011;9873;52.236;21.002;2023-07-22T01:11:14;8.65;;;7.20;;
17261;SDS011;9873;52.236;21.002;2023-07-22T01:21:19;9.27;;;8.40;;
17261;SDS011;9873;52.236;21.002;2023-07-22T01:31:31;9.23;;;8.20;;
17261;SDS011;9873;52.236;21.002;2023-07-22T01:41:36;9.55;;;8.57;;
17261;SDS011;9873;52.236;21.002;2023-07-22T01:51:39;9.68;;;8.68;;
17261;SDS011;9873;52.236;21.002;2023-07-22T02:01:45;8.75;;;7.85;;
17261;SDS011;9873;52.236;21.002;2023-07-22T02:11:55;9.88;;;7.93;;
17261;SDS011;9873;52.236;21.002;2023-07-22T02:22:02;8.35;;;7.40;;
17261;SDS011;9873;52.236;21.002;2023-07-22T02:32:08;8.90;;;7.70;;
17261;SDS011;9873;52.236;21.002;2023-07-22T02:42:14;9.70;;;8.35;;
17261;SDS011;9873;52.236;21.002;2023-07-22T02:52:18;9.60;;;8.10;;
17261;SDS011;9873;52.236;21.002;2023-07-22T03:02:28;9.60;;;7.40;;
17261;SDS011;9873;52.236;21.002;2023-07-22T03:12:33;10.07;;;9.02;;
17261;SDS011;9873;52.236;21.002;2023-07-22T03:22:38;9.13;;;8.23;;
17261;SDS011;9873;52.236;21.002;2023-07-22T03:32:44;8.90;;;8.00;;
17261;SDS011;9873;52.236;21.002;2023-07-22T03:42:50;13.65;;;7.75;;
17261;SDS011;9873;52.236;21.002;2023-07-22T03:52:55;8.65;;;7.57;;
17261;SDS011;9873;52.236;21.002;2023-07-22T04:02:58;7.75;;;6.75;;
17261;SDS011;9873;52.236;21.002;2023-07-22T04:13:10;8.68;;;7.35;;
17261;SDS011;9873;52.236;21.002;2023-07-22T04:23:18;10.32;;;5.72;;
17261;SDS011;9873;52.236;21.002;2023-07-22T04:33:31;7.85;;;6.93;;
17261;SDS011;9873;52.236;21.002;2023-07-22T04:43:36;8.02;;;6.57;;
17261;SDS011;9873;52.236;21.002;2023-07-22T04:53:41;9.00;;;6.65;;
17261;SDS011;9873;52.236;21.002;2023-07-22T05:03:51;7.32;;;6.63;;
17261;SDS011;9873;52.236;21.002;2023-07-22T05:13:56;8.70;;;7.85;;
17261;SDS011;9873;52.236;21.002;2023-07-22T05:23:59;7.78;;;7.07;;
17261;SDS011;9873;52.236;21.002;2023-07-22T05:34:05;10.70;;;7.75;;
17261;SDS011;9873;52.236;21.002;2023-07-22T05:44:11;8.73;;;7.93;;
17261;SDS011;9873;52.236;21.002;2023-07-22T05:54:17;7.60;;;6.90;;
17261;SDS011;9873;52.236;21.002;2023-07-22T06:04:20;8.30;;;7.20;;
17261;SDS011;9873;52.236;21.002;2023-07-22T06:14:22;7.05;;;6.45;;
17261;SDS011;9873;52.236;21.002;2023-07-22T06:24:27;6.95;;;6.18;;
17261;SDS011;9873;52.236;21.002;2023-07-22T06:34:30;7.28;;;6.20;;
17261;SDS011;9873;52.236;21.002;2023-07-22T06:44:34;5.65;;;5.05;;
17261;SDS011;9873;52.236;21.002;2023-07-22T06:54:37;9.00;;;4.70;;
17261;SDS011;9873;52.236;21.002;2023-07-22T07:04:39;4.68;;;3.50;;
17261;SDS011;9873;52.236;21.002;2023-07-22T07:14:42;2.97;;;2.67;;
17261;SDS011;9873;52.236;21.002;2023-07-22T07:24:45;6.30;;;3.40;;
17261;SDS011;9873;52.236;21.002;2023-07-22T07:34:50;3.50;;;2.72;;
17261;SDS011;9873;52.236;21.002;2023-07-22T07:44:52;3.47;;;2.85;;
17261;SDS011;9873;52.236;21.002;2023-07-22T07:54:57;4.50;;;2.80;;
17261;SDS011;9873;52.236;21.002;2023-07-22T08:05:02;3.45;;;2.70;;
17261;SDS011;9873;52.236;21.002;2023-07-22T08:15:07;2.88;;;2.17;;
17261;SDS011;9873;52.236;21.002;2023-07-22T08:25:11;3.22;;;2.10;;
17261;SDS011;9873;52.236;21.002;2023-07-22T08:35:16;3.83;;;1.90;;
17261;SDS011;9873;52.236;21.002;2023-07-22T08:45:20;2.08;;;1.85;;
17261;SDS011;9873;52.236;21.002;2023-07-22T08:55:25;1.73;;;1.52;;
17261;SDS011;9873;52.236;21.002;2023-07-22T09:05:27;3.40;;;1.92;;
17261;SDS011;9873;52.236;21.002;2023-07-22T09:15:36;1.88;;;1.77;;
17261;SDS011;9873;52.236;21.002;2023-07-22T09:25:41;4.03;;;1.92;;
17261;SDS011;9873;52.236;21.002;2023-07-22T09:35:45;2.20;;;2.00;;
17261;SDS011;9873;52.236;21.002;2023-07-22T09:45:48;2.78;;;2.15;;
17261;SDS011;9873;52.236;21.002;2023-07-22T09:55:53;4.13;;;1.98;;
17261;SDS011;9873;52.236;21.002;2023-07-22T10:06:01;2.78;;;1.80;;
17261;SDS011;9873;52.236;21.002;2023-07-22T10:16:08;2.97;;;1.63;;
17261;SDS011;9873;52.236;21.002;2023-07-22T10:26:11;1.67;;;1.42;;
17261;SDS011;9873;52.236;21.002;2023-07-22T10:36:17;2.05;;;1.50;;
17261;SDS011;9873;52.236;21.002;2023-07-22T10:56:45;2.67;;;1.60;;
17261;SDS011;9873;52.236;21.002;2023-07-22T11:16:50;1.60;;;1.45;;
17261;SDS011;9873;52.236;21.002;2023-07-22T11:26:55;3.20;;;1.77;;
17261;SDS011;9873;52.236;21.002;2023-07-22T11:37:01;2.28;;;1.80;;
17261;SDS011;9873;52.236;21.002;2023-07-22T11:47:06;3.05;;;2.40;;
17261;SDS011;9873;52.236;21.002;2023-07-22T12:07:25;3.67;;;2.10;;
17261;SDS011;9873;52.236;21.002;2023-07-22T12:17:42;2.30;;;2.03;;
17261;SDS011;9873;52.236;21.002;2023-07-22T12:27:45;2.45;;;1.60;;
17261;SDS011;9873;52.236;21.002;2023-07-22T12:37:48;3.50;;;1.80;;
17261;SDS011;9873;52.236;21.002;2023-07-22T12:47:50;2.88;;;1.58;;
17261;SDS011;9873;52.236;21.002;2023-07-22T12:57:56;1.90;;;1.60;;
17261;SDS011;9873;52.236;21.002;2023-07-22T13:08:02;1.60;;;1.50;;
17261;SDS011;9873;52.236;21.002;2023-07-22T13:18:09;1.60;;;1.50;;
17261;SDS011;9873;52.236;21.002;2023-07-22T13:28:15;3.00;;;1.50;;
17261;SDS011;9873;52.236;21.002;2023-07-22T13:38:17;2.17;;;1.88;;
17261;SDS011;9873;52.236;21.002;2023-07-22T13:48:22;1.63;;;1.52;;
17261;SDS011;9873;52.236;21.002;2023-07-22T13:58:25;4.90;;;2.10;;
17261;SDS011;9873;52.236;21.002;2023-07-22T14:08:27;2.63;;;1.65;;
17261;SDS011;9873;52.236;21.002;2023-07-22T14:18:32;2.70;;;1.92;;
17261;SDS011;9873;52.236;21.002;2023-07-22T14:28:37;4.70;;;2.00;;
17261;SDS011;9873;52.236;21.002;2023-07-22T14:38:42;3.25;;;2.05;;
17261;SDS011;9873;52.236;21.002;2023-07-22T14:48:47;2.80;;;2.15;;
17261;SDS011;9873;52.236;21.002;2023-07-22T14:58:51;2.50;;;2.28;;
17261;SDS011;9873;52.236;21.002;2023-07-22T15:08:56;1.90;;;1.75;;
17261;SDS011;9873;52.236;21.002;2023-07-22T15:19:04;3.33;;;2.10;;
17261;SDS011;9873;52.236;21.002;2023-07-22T15:29:09;2.42;;;1.65;;
17261;SDS011;9873;52.236;21.002;2023-07-22T15:39:13;2.65;;;1.80;;
17261;SDS011;9873;52.236;21.002;2023-07-22T15:49:17;2.00;;;1.60;;
17261;SDS011;9873;52.236;21.002;2023-07-22T15:59:22;2.40;;;1.67;;
17261;SDS011;9873;52.236;21.002;2023-07-22T16:09:29;5.55;;;2.15;;
17261;SDS011;9873;52.236;21.002;2023-07-22T16:19:36;1.95;;;1.75;;
17261;SDS011;9873;52.236;21.002;2023-07-22T16:29:38;2.65;;;1.63;;
17261;SDS011;9873;52.236;21.002;2023-07-22T16:39:42;3.58;;;1.70;;
17261;SDS011;9873;52.236;21.002;2023-07-22T16:49:45;1.77;;;1.67;;
17261;SDS011;9873;52.236;21.002;2023-07-22T16:59:50;3.28;;;2.03;;
17261;SDS011;9873;52.236;21.002;2023-07-22T17:09:55;3.70;;;1.63;;
17261;SDS011;9873;52.236;21.002;2023-07-22T17:19:58;4.78;;;2.25;;
17261;SDS011;9873;52.236;21.002;2023-07-22T17:30:01;2.13;;;1.85;;
17261;SDS011;9873;52.236;21.002;2023-07-22T17:40:07;3.25;;;1.90;;
17261;SDS011;9873;52.236;21.002;2023-07-22T17:50:14;2.83;;;1.90;;
17261;SDS011;9873;52.236;21.002;2023-07-22T18:00:19;1.92;;;1.58;;
17261;SDS011;9873;52.236;21.002;2023-07-22T18:10:24;3.75;;;2.70;;
17261;SDS011;9873;52.236;21.002;2023-07-22T18:20:28;2.72;;;1.55;;
17261;SDS011;9873;52.236;21.002;2023-07-22T18:30:33;6.88;;;2.03;;
17261;SDS011;9873;52.236;21.002;2023-07-22T18:40:42;3.45;;;2.25;;
17261;SDS011;9873;52.236;21.002;2023-07-22T18:50:45;2.40;;;1.75;;
17261;SDS011;9873;52.236;21.002;2023-07-22T19:00:48;3.13;;;1.80;;
17261;SDS011;9873;52.236;21.002;2023-07-22T19:10:51;7.43;;;2.30;;
17261;SDS011;9873;52.236;21.002;2023-07-22T19:20:58;2.33;;;1.98;;
17261;SDS011;9873;52.236;21.002;2023-07-22T19:31:02;4.90;;;2.20;;
17261;SDS011;9873;52.236;21.002;2023-07-22T19:41:08;4.22;;;2.50;;
17261;SDS011;9873;52.236;21.002;2023-07-22T19:51:12;5.60;;;2.58;;
17261;SDS011;9873;52.236;21.002;2023-07-22T20:01:17;5.40;;;2.90;;
17261;SDS011;9873;52.236;21.002;2023-07-22T20:11:21;3.55;;;2.50;;
17261;SDS011;9873;52.236;21.002;2023-07-22T20:21:26;3.47;;;2.60;;
17261;SDS011;9873;52.236;21.002;2023-07-22T20:31:31;3.75;;;2.70;;
17261;SDS011;9873;52.236;21.002;2023-07-22T20:41:40;5.13;;;3.08;;
17261;SDS011;9873;52.236;21.002;2023-07-22T20:51:44;4.22;;;2.83;;
17261;SDS011;9873;52.236;21.002;2023-07-22T21:01:47;3.35;;;2.55;;
17261;SDS011;9873;52.236;21.002;2023-07-22T21:11:50;4.00;;;2.88;;
17261;SDS011;9873;52.236;21.002;2023-07-22T21:21:52;4.63;;;2.70;;
17261;SDS011;9873;52.236;21.002;2023-07-22T21:31:57;3.58;;;2.80;;
17261;SDS011;9873;52.236;21.002;2023-07-22T21:42:02;3.40;;;2.47;;
17261;SDS011;9873;52.236;21.002;2023-07-22T21:52:09;3.58;;;2.72;;
17261;SDS011;9873;52.236;21.002;2023-07-22T22:02:18;5.20;;;2.97;;
17261;SDS011;9873;52.236;21.002;2023-07-22T22:12:23;3.83;;;2.80;;
17261;SDS011;9873;52.236;21.002;2023-07-22T22:22:30;5.07;;;3.30;;
17261;SDS011;9873;52.236;21.002;2023-07-22T22:32:32;5.28;;;2.75;;
17261;SDS011;9873;52.236;21.002;2023-07-22T22:42:37;4.20;;;3.15;;
17261;SDS011;9873;52.236;21.002;2023-07-22T22:52:40;5.35;;;3.15;;
17261;SDS011;9873;52.236;21.002;2023-07-22T23:02:49;6.45;;;3.65;;
17261;SDS011;9873;52.236;21.002;2023-07-22T23:12:54;3.78;;;3.17;;
17261;SDS011;9873;52.236;21.002;2023-07-22T23:23:00;4.55;;;3.72;;
17261;SDS011;9873;52.236;21.002;2023-07-22T23:33:04;6.15;;;3.50;;
17261;SDS011;9873;52.236;21.002;2023-07-22T23:43:10;5.07;;;3.25;;
17261;SDS011;9873;52.236;21.002;2023-07-22T23:53:13;5.47;;;3.42;;
